Time;durP1;ratioP1;P1;durP2;ratioP2;P2;SDS_P1;SDS_P2;PMS_P1;PMS_P2;Temp;Humidity;BMP_temperature;BMP_pressure;BME280_temperature;BME280_humidity;BME280_pressure;Samples;Min_cycle;Max_cycle;Signal;HPM_P1;HPM_P2
2023/08/27 00:00:16;;;;;;;16.25;6.90;;;;;;;26.84;45.21;95100.84;5033557;28;20029;-79
2023/08/27 00:02:42;;;;;;;10.48;6.82;;;;;;;26.83;45.20;95098.50;5031425;28;20037;-79
2023/08/27 00:05:07;;;;;;;9.80;6.70;;;;;;;26.81;45.44;95109.75;5033360;28;20083;-79
2023/08/27 00:07:34;;;;;;;13.55;7.10;;;;;;;26.70;45.20;95099.97;5031416;28;20025;-79
2023/08/27 00:10:01;;;;;;;10.43;6.35;;;;;;;26.72;44.94;95097.66;5033242;28;20068;-79
2023/08/27 00:12:27;;;;;;;8.57;6.38;;;;;;;26.71;44.99;95087.91;5031577;28;20030;-80
2023/08/27 00:14:53;;;;;;;12.45;6.80;;;;;;;26.64;45.11;95087.88;5031766;28;20386;-79
2023/08/27 00:17:19;;;;;;;16.77;5.97;;;;;;;26.48;44.98;95045.41;5032973;28;20049;-79
2023/08/27 00:19:45;;;;;;;12.00;6.32;;;;;;;26.65;45.00;95073.91;5033106;28;20037;-80
2023/08/27 00:22:10;;;;;;;12.75;6.75;;;;;;;26.77;45.02;95092.66;5030551;28;20030;-80
2023/08/27 00:24:36;;;;;;;11.88;6.57;;;;;;;26.70;45.10;95083.66;5032897;28;20087;-80
2023/08/27 00:27:03;;;;;;;11.65;6.25;;;;;;;26.53;44.79;95057.91;5031103;28;20153;-80
2023/08/27 00:29:29;;;;;;;9.15;6.07;;;;;;;26.62;45.25;95082.84;5033512;28;20095;-80
2023/08/27 00:31:54;;;;;;;12.77;6.22;;;;;;;26.63;45.00;95084.38;5034307;28;20037;-80
2023/08/27 00:34:19;;;;;;;9.77;6.50;;;;;;;26.53;44.76;95071.50;5032105;28;20108;-80
2023/08/27 00:36:45;;;;;;;10.18;5.63;;;;;;;26.60;44.92;95087.84;5033484;28;20446;-79
2023/08/27 00:39:10;;;;;;;14.82;6.25;;;;;;;26.40;44.68;95060.13;5032513;28;20511;-79
2023/08/27 00:41:36;;;;;;;10.65;6.00;;;;;;;26.47;45.07;95076.47;5031007;28;20094;-79
2023/08/27 00:44:01;;;;;;;10.07;6.25;;;;;;;26.44;44.98;95069.09;5030958;28;20033;-79
2023/08/27 00:46:27;;;;;;;8.57;6.22;;;;;;;25.98;44.93;95018.97;5031318;28;20025;-79
2023/08/27 00:48:52;;;;;;;12.55;6.45;;;;;;;26.35;45.06;95054.25;5032331;28;20037;-79
2023/08/27 00:51:18;;;;;;;9.18;6.05;;;;;;;25.72;45.63;94985.38;5030897;28;20025;-79
2023/08/27 00:53:44;;;;;;;8.93;6.43;;;;;;;25.90;45.62;95009.22;5030469;28;20471;-79
2023/08/27 00:56:09;;;;;;;11.55;6.38;;;;;;;26.22;45.75;95072.78;5032408;28;20029;-79
2023/08/27 00:58:35;;;;;;;11.70;6.55;;;;;;;26.12;45.95;95063.38;5032286;28;20048;-79
2023/08/27 01:01:01;;;;;;;7.75;5.88;;;;;;;25.80;45.73;95021.53;5030445;28;20419;-79
2023/08/27 01:03:27;;;;;;;9.55;5.88;;;;;;;25.94;46.25;95059.69;5030320;28;20124;-79
2023/08/27 01:05:52;;;;;;;9.90;6.38;;;;;;;26.06;46.37;95067.59;5030616;28;20033;-79
2023/08/27 01:08:33;;;;;;;9.05;6.55;;;;;;;26.02;45.92;95071.41;5031955;28;20041;-79
2023/08/27 01:11:17;;;;;;;11.80;6.32;;;;;;;25.86;46.36;95054.59;5030463;28;20112;-79
2023/08/27 01:14:07;;;;;;;10.73;6.13;;;;;;;26.05;46.13;95073.38;5030392;28;20045;-79
2023/08/27 01:16:35;;;;;;;10.90;6.67;;;;;;;25.87;46.44;95065.06;5026780;28;20045;-79
2023/08/27 01:19:01;;;;;;;8.95;6.57;;;;;;;25.42;46.10;94979.25;5032282;28;20087;-79
2023/08/27 01:21:27;;;;;;;8.98;5.88;;;;;;;25.71;45.79;95026.47;5031948;28;20037;-79
2023/08/27 01:23:53;;;;;;;11.00;5.97;;;;;;;25.82;46.07;95053.75;5030559;28;20037;-79
2023/08/27 01:26:56;;;;;;;8.45;5.80;;;;;;;25.99;46.00;95069.47;5030280;28;20518;-79
2023/08/27 01:29:30;;;;;;;12.75;6.22;;;;;;;25.94;46.17;95067.84;5030664;28;20045;-79
2023/08/27 01:32:10;;;;;;;8.40;5.40;;;;;;;25.89;46.09;95064.69;5031423;28;20043;-79
2023/08/27 01:34:36;;;;;;;8.98;5.65;;;;;;;25.71;46.66;95048.22;5030102;28;20216;-79
2023/08/27 01:37:03;;;;;;;12.07;5.80;;;;;;;25.86;46.33;95084.47;5029873;28;20037;-79
2023/08/27 01:39:29;;;;;;;11.45;6.43;;;;;;;25.77;46.52;95056.81;5030168;28;20041;-79
2023/08/27 01:41:54;;;;;;;12.75;5.93;;;;;;;25.83;46.37;95064.25;5031505;28;20033;-79
2023/08/27 01:44:20;;;;;;;11.93;6.43;;;;;;;25.74;46.52;95052.91;5031490;28;20087;-79
2023/08/27 01:46:46;;;;;;;13.82;6.85;;;;;;;25.39;46.82;95042.44;5029509;28;20055;-78
2023/08/27 01:49:11;;;;;;;8.88;6.22;;;;;;;25.72;46.76;95085.09;5030222;28;20056;-78
2023/08/27 01:51:36;;;;;;;11.93;6.20;;;;;;;25.51;46.99;95066.59;5031472;28;20033;-78
2023/08/27 01:54:02;;;;;;;10.77;6.50;;;;;;;25.41;47.22;95066.47;5029785;28;20480;-78
2023/08/27 01:56:28;;;;;;;9.38;6.07;;;;;;;25.48;47.39;95085.59;5030325;28;20460;-78
2023/08/27 01:58:53;;;;;;;7.93;6.40;;;;;;;25.26;47.49;95046.53;5030128;28;20492;-78
2023/08/27 02:01:19;;;;;;;12.20;6.07;;;;;;;25.13;47.61;95039.78;5031124;28;20069;-78
2023/08/27 02:03:44;;;;;;;15.18;6.50;;;;;;;25.47;47.71;95065.00;5029292;28;20136;-78
2023/08/27 02:06:10;;;;;;;10.90;6.03;;;;;;;25.48;48.01;95072.00;5029549;28;20499;-78
2023/08/27 02:08:35;;;;;;;11.25;6.57;;;;;;;25.35;47.90;95058.66;5030423;28;20042;-78
2023/08/27 02:11:01;;;;;;;9.13;6.63;;;;;;;25.01;48.18;95024.53;5029663;28;20037;-78
2023/08/27 02:13:26;;;;;;;12.82;6.53;;;;;;;25.33;48.24;95077.25;5031202;28;20056;-78
2023/08/27 02:15:52;;;;;;;8.88;6.68;;;;;;;25.10;48.35;95044.00;5030447;28;20072;-78
2023/08/27 02:18:17;;;;;;;10.35;6.22;;;;;;;25.22;48.31;95065.50;5030833;28;20508;-78
2023/08/27 02:20:43;;;;;;;9.73;5.88;;;;;;;25.18;48.33;95044.88;5029325;28;20124;-78
2023/08/27 02:23:09;;;;;;;10.75;6.32;;;;;;;25.23;48.33;95056.22;5010970;28;20056;-78
2023/08/27 02:25:35;;;;;;;9.00;6.55;;;;;;;25.35;48.06;95063.31;5030411;28;20030;-78
2023/08/27 02:28:00;;;;;;;8.70;6.55;;;;;;;24.98;48.39;95014.41;5028618;28;20072;-78
2023/08/27 02:30:25;;;;;;;10.55;6.47;;;;;;;25.09;48.75;95044.41;5030207;28;20123;-78
2023/08/27 02:32:51;;;;;;;14.82;6.85;;;;;;;25.30;48.55;95066.38;5030491;28;20052;-78
2023/08/27 02:35:16;;;;;;;12.05;6.68;;;;;;;25.26;48.66;95063.59;5029373;28;20061;-78
2023/08/27 02:37:42;;;;;;;11.02;6.40;;;;;;;25.22;48.73;95060.06;5030211;28;20044;-78
2023/08/27 02:40:08;;;;;;;11.55;6.53;;;;;;;24.89;49.00;95020.09;5031144;28;20040;-78
2023/08/27 02:42:33;;;;;;;14.70;7.00;;;;;;;25.11;49.30;95061.84;5029469;28;20029;-77
2023/08/27 02:44:59;;;;;;;10.70;6.50;;;;;;;24.93;49.03;95020.19;5030592;28;20108;-77
2023/08/27 02:47:24;;;;;;;10.50;6.35;;;;;;;24.92;49.25;95034.88;5029010;28;20144;-78
2023/08/27 02:49:50;;;;;;;13.90;7.18;;;;;;;25.01;49.18;95048.97;5030986;28;20042;-77
2023/08/27 02:52:16;;;;;;;10.13;6.45;;;;;;;24.74;49.33;95017.56;5030863;28;20489;-77
2023/08/27 02:54:42;;;;;;;10.48;6.70;;;;;;;24.98;49.17;95042.31;5031273;28;20042;-78
2023/08/27 02:57:07;;;;;;;13.48;7.00;;;;;;;25.01;49.31;95059.81;5029776;28;20030;-77
2023/08/27 02:59:33;;;;;;;10.68;6.65;;;;;;;25.09;49.44;95066.88;5031845;28;20124;-78
2023/08/27 03:01:58;;;;;;;11.48;7.25;;;;;;;24.82;49.67;95033.56;5029837;28;20141;-77
2023/08/27 03:04:23;;;;;;;14.07;7.47;;;;;;;24.79;49.65;95041.66;5033371;28;20041;-78
2023/08/27 03:06:49;;;;;;;8.98;6.45;;;;;;;25.03;49.64;95073.75;5029264;28;20797;-77
2023/08/27 03:09:15;;;;;;;11.07;7.20;;;;;;;24.67;50.20;95058.13;5030572;28;20099;-77
2023/08/27 03:11:40;;;;;;;8.30;6.55;;;;;;;24.65;50.53;95069.34;5031649;28;20025;-77
2023/08/27 03:14:07;;;;;;;13.48;7.50;;;;;;;24.70;50.40;95070.97;5034711;28;20045;-77
2023/08/27 03:16:32;;;;;;;13.15;6.85;;;;;;;24.67;50.49;95069.75;5032743;28;20519;-77
2023/08/27 03:18:58;;;;;;;10.68;6.68;;;;;;;24.74;50.63;95075.28;5032641;28;20144;-77
2023/08/27 03:21:24;;;;;;;13.15;7.18;;;;;;;24.23;50.64;95007.94;5034503;28;20121;-77
2023/08/27 03:23:50;;;;;;;14.18;7.22;;;;;;;24.44;50.87;95039.22;5034501;28;20515;-77
2023/08/27 03:26:15;;;;;;;14.40;7.15;;;;;;;24.45;51.02;95044.28;5032950;28;20034;-78
2023/08/27 03:28:41;;;;;;;13.70;7.55;;;;;;;24.48;50.90;95050.91;5033676;28;20066;-77
2023/08/27 03:31:06;;;;;;;14.38;7.15;;;;;;;24.43;51.09;95035.72;5034299;28;20036;-77
2023/08/27 03:33:32;;;;;;;12.13;7.80;;;;;;;24.70;51.17;95081.81;5033987;28;20025;-78
2023/08/27 03:35:59;;;;;;;13.88;7.20;;;;;;;24.33;51.52;95041.00;5031733;28;20064;-78
2023/08/27 03:38:25;;;;;;;14.32;7.70;;;;;;;24.39;51.52;95043.03;5031681;28;20117;-78
2023/08/27 03:40:52;;;;;;;15.25;7.75;;;;;;;24.50;51.44;95073.78;5032668;28;20043;-78
2023/08/27 03:43:17;;;;;;;12.80;7.82;;;;;;;24.33;51.48;95052.63;5033277;28;20432;-78
2023/08/27 03:45:43;;;;;;;17.98;7.68;;;;;;;24.56;51.78;95083.16;5033960;28;20025;-78
2023/08/27 03:48:09;;;;;;;12.63;7.60;;;;;;;24.25;51.91;95036.59;5032500;28;20045;-78
2023/08/27 03:50:36;;;;;;;12.52;7.30;;;;;;;24.44;51.92;95088.78;5033210;28;20029;-78
2023/08/27 03:53:03;;;;;;;15.40;7.15;;;;;;;24.14;52.46;95068.91;5034015;28;20164;-78
2023/08/27 03:55:28;;;;;;;10.27;7.60;;;;;;;24.25;52.31;95080.75;5032007;28;20037;-77
2023/08/27 03:57:54;;;;;;;13.23;6.90;;;;;;;24.26;51.97;95079.56;5033456;28;20025;-78
2023/08/27 04:00:20;;;;;;;12.50;7.07;;;;;;;24.16;52.11;95077.47;5032959;28;20033;-78
2023/08/27 04:02:45;;;;;;;13.02;7.53;;;;;;;24.29;52.07;95094.34;5031743;28;20041;-78
2023/08/27 04:05:11;;;;;;;11.98;7.60;;;;;;;24.25;52.62;95086.16;5032102;28;20033;-78
2023/08/27 04:07:36;;;;;;;17.35;7.80;;;;;;;24.16;52.37;95069.34;5033447;28;20060;-78
2023/08/27 04:10:04;;;;;;;17.25;8.35;;;;;;;24.32;52.72;95105.25;5031135;28;20451;-78
2023/08/27 04:12:30;;;;;;;12.52;7.45;;;;;;;24.32;52.53;95093.63;5033339;28;20036;-78
2023/08/27 04:14:57;;;;;;;13.43;7.47;;;;;;;24.39;52.77;95107.28;5033189;28;20404;-78
2023/08/27 04:17:22;;;;;;;13.95;7.45;;;;;;;24.28;52.52;95098.19;5031809;28;20100;-78
2023/08/27 04:19:48;;;;;;;13.68;7.70;;;;;;;24.22;52.13;95106.63;5031895;28;20037;-78
2023/08/27 04:22:13;;;;;;;18.33;7.68;;;;;;;24.17;52.55;95096.06;5032811;28;20106;-78
2023/08/27 04:24:39;;;;;;;11.82;7.68;;;;;;;24.31;52.63;95111.81;5031484;28;20063;-78
2023/08/27 04:27:04;;;;;;;12.80;7.40;;;;;;;24.15;52.30;95087.50;5032969;28;20108;-78
2023/08/27 04:29:30;;;;;;;14.70;7.70;;;;;;;24.04;52.29;95077.63;5032232;28;20029;-78
2023/08/27 04:31:55;;;;;;;13.02;7.43;;;;;;;24.22;52.82;95113.97;5031800;28;20040;-78
2023/08/27 04:34:21;;;;;;;12.43;7.38;;;;;;;24.17;52.47;95098.00;5033242;28;20044;-78
2023/08/27 04:36:46;;;;;;;15.43;7.85;;;;;;;24.14;52.67;95096.00;5032426;28;20103;-78
2023/08/27 04:39:13;;;;;;;13.15;8.07;;;;;;;24.27;52.88;95110.16;5033670;28;20538;-78
2023/08/27 04:41:39;;;;;;;12.43;7.80;;;;;;;23.79;52.63;95029.25;5032913;28;20029;-78
2023/08/27 04:44:05;;;;;;;18.83;8.48;;;;;;;24.05;52.87;95077.28;5032692;28;20096;-78
2023/08/27 04:46:31;;;;;;;11.75;7.90;;;;;;;24.17;52.48;95077.09;5031723;28;20455;-78
2023/08/27 04:48:56;;;;;;;10.63;7.18;;;;;;;24.13;52.56;95073.53;5031145;28;20029;-78
2023/08/27 04:51:26;;;;;;;16.42;7.32;;;;;;;24.25;52.21;95094.28;5033240;28;20034;-78
2023/08/27 04:53:52;;;;;;;16.42;7.03;;;;;;;24.33;52.37;95111.44;5031765;28;20033;-78
2023/08/27 04:56:18;;;;;;;9.05;6.82;;;;;;;24.27;52.27;95104.75;5031106;28;20471;-78
2023/08/27 04:58:43;;;;;;;20.92;8.13;;;;;;;24.32;52.04;95107.19;5031059;28;20466;-78
2023/08/27 05:01:09;;;;;;;14.65;6.97;;;;;;;24.25;51.90;95099.72;5030855;28;20037;-78
2023/08/27 05:03:35;;;;;;;10.55;6.70;;;;;;;23.97;52.26;95056.63;5031524;28;20352;-78
2023/08/27 05:06:00;;;;;;;14.43;7.35;;;;;;;24.20;52.28;95091.88;5031175;28;20030;-78
2023/08/27 05:08:26;;;;;;;16.35;7.85;;;;;;;24.22;52.00;95095.78;5031229;28;20500;-78
2023/08/27 05:10:52;;;;;;;16.58;7.10;;;;;;;24.08;52.01;95064.94;5032464;28;20040;-78
2023/08/27 05:13:18;;;;;;;9.73;6.65;;;;;;;24.40;52.06;95117.78;5030965;28;20302;-78
2023/08/27 05:15:43;;;;;;;10.73;6.43;;;;;;;24.08;51.72;95064.94;5032521;28;20051;-78
2023/08/27 05:18:09;;;;;;;15.88;6.80;;;;;;;24.47;51.49;95115.19;5030657;28;20044;-79
2023/08/27 05:20:38;;;;;;;10.93;6.75;;;;;;;24.26;51.55;95067.97;5030528;28;20039;-79
2023/08/27 05:23:04;;;;;;;16.50;6.20;;;;;;;24.37;51.78;95082.47;5032473;28;20087;-79
2023/08/27 05:25:30;;;;;;;11.90;6.05;;;;;;;24.64;51.36;95124.75;5031162;28;20032;-79
2023/08/27 05:27:55;;;;;;;13.38;6.68;;;;;;;24.65;51.54;95122.78;5030363;28;20120;-80
2023/08/27 05:30:21;;;;;;;11.27;6.75;;;;;;;24.40;51.28;95101.50;5030582;28;20527;-79
2023/08/27 05:32:47;;;;;;;13.50;6.90;;;;;;;24.61;51.28;95128.16;5030162;28;20105;-79
2023/08/27 05:35:13;;;;;;;11.27;6.80;;;;;;;24.61;51.06;95122.75;5031010;28;20508;-79
2023/08/27 05:37:39;;;;;;;12.15;6.90;;;;;;;24.56;51.24;95123.81;5031201;28;20172;-79
2023/08/27 05:40:05;;;;;;;11.57;6.70;;;;;;;24.66;51.39;95135.97;5030093;28;20461;-79
2023/08/27 05:42:32;;;;;;;10.82;6.57;;;;;;;24.58;50.87;95116.09;5029835;28;20396;-79
2023/08/27 05:44:58;;;;;;;9.15;6.68;;;;;;;24.74;51.07;95134.16;5032274;28;20030;-79
2023/08/27 05:47:23;;;;;;;11.43;6.88;;;;;;;24.78;50.91;95130.38;5031965;28;20032;-79
2023/08/27 05:49:51;;;;;;;13.30;7.00;;;;;;;24.58;51.12;95097.13;5030652;28;20111;-80
2023/08/27 05:52:17;;;;;;;14.05;7.30;;;;;;;24.65;50.79;95109.22;5030028;28;20561;-79
2023/08/27 05:54:42;;;;;;;10.63;6.43;;;;;;;24.76;50.55;95113.69;5031469;28;20033;-79
2023/08/27 05:57:08;;;;;;;8.57;6.57;;;;;;;24.70;50.66;95096.16;5029992;28;20055;-79
2023/08/27 05:59:33;;;;;;;11.25;7.85;;;;;;;24.86;50.78;95109.56;5030257;28;20068;-79
2023/08/27 06:01:59;;;;;;;11.55;6.95;;;;;;;24.83;50.92;95096.72;5031910;28;20121;-79
2023/08/27 06:04:25;;;;;;;11.80;6.50;;;;;;;24.91;50.79;95103.84;5029486;28;20041;-79
2023/08/27 06:06:50;;;;;;;13.85;7.32;;;;;;;25.06;50.50;95121.09;5031119;28;20497;-79
2023/08/27 06:09:17;;;;;;;10.38;6.97;;;;;;;24.90;50.67;95092.22;5031255;28;20045;-79
2023/08/27 06:11:42;;;;;;;19.23;7.85;;;;;;;24.85;50.31;95086.28;5031458;28;20026;-79
2023/08/27 06:14:08;;;;;;;10.38;7.05;;;;;;;25.02;49.96;95112.94;5030779;28;20381;-79
2023/08/27 06:16:33;;;;;;;15.48;7.68;;;;;;;24.93;50.14;95088.78;5029741;28;20060;-79
2023/08/27 06:18:59;;;;;;;11.75;7.30;;;;;;;25.15;50.00;95108.03;5030288;28;20044;-79
2023/08/27 06:21:25;;;;;;;11.75;7.70;;;;;;;25.19;50.17;95108.84;5029355;28;20405;-79
2023/08/27 06:23:50;;;;;;;13.00;7.25;;;;;;;25.17;50.01;95092.97;5029103;28;20036;-79
2023/08/27 06:26:16;;;;;;;16.88;7.57;;;;;;;24.96;50.15;95062.81;5030603;28;20139;-79
2023/08/27 06:28:41;;;;;;;12.00;7.57;;;;;;;25.13;50.48;95107.63;5029786;28;20026;-79
2023/08/27 06:31:07;;;;;;;14.85;7.63;;;;;;;25.18;50.23;95080.16;5029948;28;20120;-79
2023/08/27 06:33:32;;;;;;;12.32;7.07;;;;;;;25.37;49.87;95097.09;5030914;28;20029;-79
2023/08/27 06:35:58;;;;;;;11.45;6.90;;;;;;;25.25;49.67;95077.56;5030994;28;20046;-79
2023/08/27 06:38:24;;;;;;;14.05;7.25;;;;;;;25.37;49.62;95099.81;5029539;28;20322;-79
2023/08/27 06:40:50;;;;;;;16.15;7.45;;;;;;;25.04;49.90;95047.41;5030672;28;20480;-79
2023/08/27 06:43:15;;;;;;;11.13;7.10;;;;;;;25.27;49.66;95088.81;5029383;28;20514;-79
2023/08/27 06:45:40;;;;;;;11.80;7.28;;;;;;;25.41;49.25;95090.91;5032757;28;20037;-79
2023/08/27 06:48:06;;;;;;;12.02;7.75;;;;;;;25.40;49.40;95082.00;5034721;28;20037;-80
2023/08/27 06:50:31;;;;;;;16.38;7.38;;;;;;;25.24;49.38;95059.72;5033617;28;20029;-79
2023/08/27 06:52:57;;;;;;;16.38;6.63;;;;;;;25.21;48.88;95053.06;5034312;28;20064;-79
2023/08/27 06:55:22;;;;;;;17.63;7.25;;;;;;;25.41;49.08;95072.69;5034634;28;20033;-79
2023/08/27 06:57:48;;;;;;;10.90;6.80;;;;;;;24.97;48.43;95010.91;5032976;28;20191;-79
2023/08/27 07:00:14;;;;;;;13.13;7.40;;;;;;;25.40;49.01;95090.16;5034695;28;20033;-79
2023/08/27 07:02:40;;;;;;;12.07;7.57;;;;;;;25.58;48.29;95101.19;5034859;28;20029;-80
2023/08/27 07:05:08;;;;;;;19.98;8.43;;;;;;;25.68;48.61;95101.34;5032942;28;20068;-79
2023/08/27 07:07:38;;;;;;;13.30;7.38;;;;;;;25.78;48.27;95099.91;5032834;28;20038;-79
2023/08/27 07:10:05;;;;;;;11.18;7.10;;;;;;;25.75;48.24;95100.66;5033364;28;20120;-79
2023/08/27 07:12:35;;;;;;;17.20;7.25;;;;;;;25.78;47.93;95097.19;5034801;28;20423;-80
2023/08/27 07:15:04;;;;;;;14.68;7.45;;;;;;;25.80;47.80;95096.81;5033355;28;20428;-80
2023/08/27 07:17:33;;;;;;;10.98;7.40;;;;;;;25.89;47.52;95097.28;5034358;28;20044;-79
2023/08/27 07:19:59;;;;;;;13.55;7.10;;;;;;;25.83;47.39;95087.94;5033550;28;20033;-79
2023/08/27 07:22:25;;;;;;;14.48;7.45;;;;;;;25.95;47.67;95099.28;5034286;28;20041;-79
2023/08/27 07:24:51;;;;;;;16.05;7.15;;;;;;;25.91;47.86;95084.13;5032792;28;20037;-79
2023/08/27 07:27:17;;;;;;;14.25;7.28;;;;;;;25.80;48.17;95089.44;5033969;28;20033;-80
2023/08/27 07:29:42;;;;;;;15.52;9.20;;;;;;;25.81;47.74;95076.66;5032802;28;20030;-80
2023/08/27 07:32:08;;;;;;;14.27;7.95;;;;;;;25.66;47.58;95068.34;5032507;28;20041;-79
2023/08/27 07:34:33;;;;;;;13.68;8.45;;;;;;;25.91;47.07;95089.56;5032617;28;20472;-80
2023/08/27 07:36:59;;;;;;;17.60;8.00;;;;;;;25.95;47.19;95074.06;5032992;28;20049;-79
2023/08/27 07:39:24;;;;;;;11.77;8.18;;;;;;;25.99;47.15;95085.75;5032494;28;20029;-79
2023/08/27 07:41:50;;;;;;;14.38;8.63;;;;;;;25.82;47.50;95059.97;5032932;28;20040;-78
2023/08/27 07:44:16;;;;;;;18.35;8.60;;;;;;;26.02;47.55;95104.00;5032425;28;20413;-78
2023/08/27 07:46:42;;;;;;;9.40;7.68;;;;;;;26.07;47.51;95098.25;5031605;28;20029;-79
2023/08/27 07:49:08;;;;;;;13.60;7.82;;;;;;;26.16;47.44;95096.03;5034267;28;20171;-79
2023/08/27 07:51:34;;;;;;;15.98;7.43;;;;;;;26.18;46.80;95101.84;5032052;28;20041;-78
2023/08/27 07:53:59;;;;;;;13.30;7.65;;;;;;;26.22;46.49;95093.72;5033597;28;20037;-79
2023/08/27 07:56:25;;;;;;;26.25;9.25;;;;;;;26.34;46.59;95083.38;5032474;28;20052;-78
2023/08/27 07:58:51;;;;;;;15.30;7.40;;;;;;;26.45;46.28;95091.63;5033495;28;20540;-79
2023/08/27 08:01:16;;;;;;;10.32;6.97;;;;;;;26.50;46.06;95081.19;5032408;28;20033;-78
2023/08/27 08:03:41;;;;;;;15.23;8.07;;;;;;;26.63;45.88;95076.22;5032678;28;20033;-79
2023/08/27 08:06:08;;;;;;;11.88;7.40;;;;;;;26.54;45.58;95059.47;5033862;28;20036;-79
2023/08/27 08:08:34;;;;;;;11.20;7.55;;;;;;;26.59;45.64;95066.47;5031162;28;20037;-79
2023/08/27 08:10:59;;;;;;;11.30;8.05;;;;;;;26.61;45.44;95062.22;5032537;28;20500;-79
2023/08/27 08:13:25;;;;;;;12.48;7.18;;;;;;;26.41;44.84;95015.47;5033489;28;20095;-79
2023/08/27 08:15:51;;;;;;;9.90;7.03;;;;;;;26.52;44.41;95029.13;5016822;28;20037;-79
2023/08/27 08:18:16;;;;;;;13.52;7.30;;;;;;;26.67;44.58;95057.22;5031998;28;20045;-79
2023/08/27 08:20:42;;;;;;;13.57;7.10;;;;;;;26.82;44.45;95067.78;5033759;28;20033;-78
2023/08/27 08:23:08;;;;;;;11.25;6.43;;;;;;;26.91;44.33;95061.28;5031723;28;20084;-79
2023/08/27 08:25:37;;;;;;;10.40;6.75;;;;;;;26.94;43.99;95046.88;5031298;28;20041;-79
2023/08/27 08:28:05;;;;;;;14.73;7.57;;;;;;;27.07;43.86;95034.53;5030632;28;20499;-79
2023/08/27 08:30:31;;;;;;;15.73;6.55;;;;;;;26.99;43.13;95024.78;5032481;28;20037;-79
2023/08/27 08:32:56;;;;;;;15.40;7.40;;;;;;;27.11;43.36;95041.53;5031675;28;20029;-79
2023/08/27 08:35:22;;;;;;;14.27;6.63;;;;;;;27.20;43.11;95039.25;5031601;28;20061;-79
2023/08/27 08:37:48;;;;;;;13.77;6.43;;;;;;;27.26;42.66;95023.31;5032241;28;20041;-79
2023/08/27 08:40:15;;;;;;;11.30;6.18;;;;;;;27.48;42.43;95043.22;5032479;28;20040;-79
2023/08/27 08:43:13;;;;;;;11.10;6.72;;;;;;;27.58;42.02;95040.56;5031302;28;20049;-79
2023/08/27 08:45:51;;;;;;;15.75;7.22;;;;;;;27.66;42.49;95035.91;5029887;28;20539;-79
2023/08/27 08:48:22;;;;;;;13.35;7.38;;;;;;;27.50;42.19;95000.84;5030792;28;20104;-79
2023/08/27 08:50:50;;;;;;;14.27;6.93;;;;;;;27.47;41.64;94982.53;5032308;28;20057;-78
2023/08/27 08:53:17;;;;;;;11.45;6.38;;;;;;;27.89;41.58;95032.84;5032472;28;20037;-79
2023/08/27 08:55:45;;;;;;;11.13;6.88;;;;;;;27.95;41.29;95026.63;5030504;28;20037;-78
2023/08/27 08:58:12;;;;;;;10.50;6.47;;;;;;;27.92;40.77;95013.75;5036159;28;20041;-81
2023/08/27 09:00:38;;;;;;;11.90;7.13;;;;;;;27.78;41.42;94997.41;5037959;28;20403;-81
2023/08/27 09:03:04;;;;;;;13.07;6.45;;;;;;;27.98;41.33;95016.91;5038124;28;20067;-81
2023/08/27 09:05:34;;;;;;;16.48;6.30;;;;;;;28.11;40.87;95009.88;5036781;28;20087;-81
2023/08/27 09:07:59;;;;;;;9.18;6.10;;;;;;;28.08;40.21;94977.16;5035590;28;20041;-81
2023/08/27 09:10:26;;;;;;;10.02;6.35;;;;;;;28.23;40.51;94978.75;5037118;28;20084;-82
2023/08/27 09:12:58;;;;;;;10.40;6.82;;;;;;;28.39;39.85;94981.84;5037282;28;20124;-81
2023/08/27 09:15:24;;;;;;;12.82;6.70;;;;;;;28.36;39.80;94969.78;5038770;28;20067;-81
2023/08/27 09:17:49;;;;;;;12.32;6.40;;;;;;;28.24;39.71;94955.75;5037265;28;20033;-82
2023/08/27 09:20:15;;;;;;;8.98;6.32;;;;;;;28.56;39.18;94989.22;5037464;28;20034;-82
2023/08/27 09:22:41;;;;;;;17.20;5.93;;;;;;;28.68;39.39;94988.03;5035405;28;20552;-81
2023/08/27 09:25:09;;;;;;;13.77;6.53;;;;;;;28.78;39.20;94982.56;5037485;28;20033;-81
2023/08/27 09:27:35;;;;;;;9.48;6.38;;;;;;;28.94;39.06;94978.63;5036812;28;20025;-81
2023/08/27 09:30:02;;;;;;;10.35;6.32;;;;;;;29.09;38.37;94991.03;5036034;28;20052;-81
2023/08/27 09:32:28;;;;;;;14.40;6.10;;;;;;;29.01;37.54;94973.13;5037972;28;20115;-81
2023/08/27 09:35:01;;;;;;;11.50;5.50;;;;;;;29.08;37.58;94970.38;5036057;28;20523;-81
2023/08/27 09:37:27;;;;;;;11.48;6.10;;;;;;;29.17;37.87;94962.53;5035818;28;20620;-81
2023/08/27 09:39:55;;;;;;;15.23;5.38;;;;;;;29.18;38.21;94951.22;5035241;28;20064;-81
2023/08/27 09:42:22;;;;;;;13.77;5.93;;;;;;;29.27;37.60;94961.72;5038377;28;20103;-81
2023/08/27 09:44:54;;;;;;;11.68;5.90;;;;;;;29.34;37.31;94967.13;5035181;28;20474;-81
2023/08/27 09:47:33;;;;;;;17.58;6.53;;;;;;;29.34;37.95;94950.75;5035807;28;20040;-81
2023/08/27 09:50:16;;;;;;;11.80;6.18;;;;;;;29.48;37.68;94958.09;5036400;28;20518;-81
2023/08/27 09:52:42;;;;;;;9.73;5.90;;;;;;;29.58;36.86;94957.28;5069835;28;20111;-81
2023/08/27 09:55:14;;;;;;;10.18;6.10;;;;;;;29.84;37.06;94964.88;5036403;28;20452;-81
2023/08/27 09:57:48;;;;;;;20.90;6.47;;;;;;;30.28;35.85;94955.97;5035781;28;20047;-82
2023/08/27 10:00:15;;;;;;;12.63;6.10;;;;;;;30.98;35.10;94947.41;5036148;28;20040;-81
2023/08/27 10:02:43;;;;;;;10.73;5.80;;;;;;;31.88;34.01;94945.81;5035942;28;20056;-82
2023/08/27 10:05:09;;;;;;;14.40;5.60;;;;;;;32.38;32.51;94896.38;5036320;28;20067;-81
2023/08/27 10:07:34;;;;;;;9.93;6.15;;;;;;;33.83;31.47;94950.34;5032824;28;20036;-79
2023/08/27 10:10:03;;;;;;;18.73;6.20;;;;;;;34.52;29.87;94948.25;5030176;28;20064;-79
2023/08/27 10:12:29;;;;;;;13.40;5.20;;;;;;;35.37;28.54;94948.69;5030280;28;20100;-79
2023/08/27 10:14:55;;;;;;;11.95;5.30;;;;;;;36.11;27.99;94945.59;5030172;28;20107;-79
2023/08/27 10:17:23;;;;;;;30.73;5.00;;;;;;;36.79;26.21;94937.84;5030137;28;20492;-79
2023/08/27 10:19:48;;;;;;;12.30;4.85;;;;;;;37.19;25.48;94949.81;5032127;28;20041;-79
2023/08/27 10:22:16;;;;;;;13.25;5.22;;;;;;;37.74;24.68;94925.25;5033594;28;20357;-79
2023/08/27 10:24:42;;;;;;;9.60;4.80;;;;;;;37.94;24.24;94913.75;5034667;28;20025;-79
2023/08/27 10:27:08;;;;;;;11.55;5.40;;;;;;;38.56;23.20;94931.00;5033843;28;20512;-79
2023/08/27 10:29:34;;;;;;;10.43;5.00;;;;;;;38.70;23.07;94919.31;5035082;28;20026;-79
2023/08/27 10:31:59;;;;;;;13.23;4.80;;;;;;;38.70;22.69;94896.38;5033241;28;20044;-79
2023/08/27 10:34:28;;;;;;;12.70;4.50;;;;;;;38.95;22.17;94884.97;5033856;28;20025;-79
2023/08/27 10:36:59;;;;;;;8.30;4.53;;;;;;;39.17;22.59;94891.09;5032957;28;20041;-79
2023/08/27 10:39:29;;;;;;;11.80;4.50;;;;;;;39.34;21.95;94883.19;5033702;28;20492;-79
2023/08/27 10:41:54;;;;;;;8.40;4.65;;;;;;;39.07;22.41;94908.19;5032855;28;20033;-79
2023/08/27 10:44:20;;;;;;;13.93;5.35;;;;;;;39.48;22.24;94920.63;5033302;28;20144;-79
2023/08/27 10:47:09;;;;;;;13.48;5.05;;;;;;;39.77;21.84;94918.03;5034902;28;20061;-79
2023/08/27 10:49:37;;;;;;;13.85;4.82;;;;;;;39.77;22.00;94920.03;5033160;28;20356;-79
2023/08/27 10:52:16;;;;;;;11.05;4.05;;;;;;;39.67;21.50;94895.09;5032910;28;20125;-79
2023/08/27 10:54:42;;;;;;;7.87;4.80;;;;;;;39.17;21.87;94902.19;5014395;28;20029;-80
2023/08/27 10:57:17;;;;;;;10.80;4.60;;;;;;;39.44;21.50;94908.94;5033219;28;20538;-80
2023/08/27 10:59:42;;;;;;;14.48;5.28;;;;;;;39.23;21.57;94900.31;5033653;28;20113;-80
2023/08/27 11:02:08;;;;;;;12.25;4.40;;;;;;;39.19;21.44;94885.84;5032903;28;20066;-79
2023/08/27 11:04:37;;;;;;;14.73;4.78;;;;;;;39.05;21.21;94869.88;5033214;28;20072;-79
2023/08/27 11:07:18;;;;;;;13.93;4.60;;;;;;;39.19;20.95;94885.84;5033456;28;20029;-80
2023/08/27 11:09:54;;;;;;;9.57;4.63;;;;;;;39.60;20.79;94895.44;5033220;28;20025;-79
2023/08/27 11:12:25;;;;;;;12.00;4.10;;;;;;;39.52;20.84;94888.69;5032855;28;20033;-79
2023/08/27 11:14:51;;;;;;;;;;;;;;;39.06;21.24;94884.50;5033459;28;20040;-80
2023/08/27 11:17:27;;;;;;;9.60;5.00;;;;;;;38.95;21.32;94868.34;5035113;28;19921;-79
2023/08/27 11:19:53;;;;;;;12.02;5.10;;;;;;;38.89;21.39;94853.53;5015512;28;20022;-80
2023/08/27 11:22:20;;;;;;;7.82;4.10;;;;;;;39.37;20.96;94876.69;5032420;28;20039;-79
2023/08/27 11:24:56;;;;;;;8.13;4.55;;;;;;;39.74;20.75;94880.13;5032509;28;20028;-79